ADDS METAR Data INFO
IDs: Format: Raw Decoded Include TAF

Data at: 0839 UTC 21 Oct 2017

KPRB 210753Z AUTO 32007KT 10SM CLR 10/07 A3014 RMK AO2 SLP205 T01000067 402060094 TSNO
KPRB 210653Z AUTO 33006KT 10SM CLR 11/07 A3014 RMK AO2 SLP203 T01060072 TSNO
KPRB 210553Z AUTO 33011KT 10SM CLR 11/07 A3012 RMK AO2 SLP196 T01110072 10189 20106 51014 TSNO
KPRB 210453Z AUTO 32011KT 10SM CLR 12/07 A3010 RMK AO2 SLP192 T01170072 TSNO
KPRB 210353Z AUTO 31008KT 10SM CLR 12/07 A3009 RMK AO2 SLP189 T01170072 TSNO
KPRB 210253Z AUTO 32015G21KT 10SM CLR 13/07 A3008 RMK AO2 SLP183 T01330067 53020 TSNO
KPRB 210153Z AUTO 33017KT 10SM CLR 14/06 A3005 RMK AO2 PK WND 32029/0056 SLP171 T01440061 TSNO
KPRB 210053Z AUTO 33019G26KT 10SM CLR 17/06 A3003 RMK AO2 PK WND 33027/0021 SLP165 T01670056 TSNO
KPRB 202353Z AUTO 33019G25KT 10SM CLR 18/05 A3001 RMK AO2 SLP160 T01830050 10206 20150 56004 TSNO
KPRB 202253Z AUTO 32020G26KT 10SM CLR 19/04 A3002 RMK AO2 PK WND 33027/2243 SLP161 T01940039 TSNO
KPRB 202153Z AUTO 33017G22KT 10SM CLR 21/04 A3001 RMK AO2 SLP158 T02060044 TSNO
KPRB 202053Z AUTO 32015KT 10SM CLR 20/06 A3003 RMK AO2 SLP165 T02000056 58012 TSNO
KPRB 201953Z AUTO 32013G17KT 10SM CLR 18/07 A3005 RMK AO2 SLP174 T01830072 TSNO
KPRB 201853Z AUTO 34013KT 10SM CLR 17/09 A3006 RMK AO2 SLP177 T01670094 TSNO
KPRB 201753Z AUTO 32015G22KT 10SM CLR 15/10 A3006 RMK AO2 SLP177 60008 T01500100 10150 20117 50014 TSNO
KPRB 201653Z AUTO 34015G20KT 10SM FEW013 13/11 A3007 RMK AO2 SLP181 T01330106 TSNO
KPRB 201553Z AUTO 32012G17KT 10SM CLR 12/11 A3005 RMK AO2 SLP174 T01220106 TSNO
KPRB 201453Z AUTO 34010KT 10SM FEW009 SCT060 BKN070 12/11 A3002 RMK AO2 RAE1359 SLP163 P0000 60008 T01220106 51015 TSNO
KPRB 201353Z AUTO 32003KT 10SM -RA BKN055 OVC075 12/11 A3000 RMK AO2 RAE02B19 SLP156 P0001 T01170111 TSNO
KPRB 201253Z AUTO 33010KT 9SM -RA FEW014 OVC030 12/11 A3002 RMK AO2 RAB05 SLP163 P0007 T01220111 TSNO
KPRB 201229Z AUTO 34014KT 4SM -RA BR FEW005 SCT016 OVC025 12/12 A3001 RMK AO2 RAB05 P0007 T01220117 TSNO
KPRB 201220Z AUTO 34011KT 2 1/2SM RA BR SCT005 BKN016 OVC022 12/12 A3000 RMK AO2 RAB05 P0006 T01220117 TSNO
KPRB 201202Z AUTO 06004KT 10SM BKN006 OVC035 13/12 A2998 RMK AO2 T01280117 TSNO
KPRB 201153Z AUTO 08003KT 10SM SCT006 BKN030 OVC048 13/13 A2997 RMK AO2 RAB03E20 SLP144 P0000 60000 T01330128 10133 20094 53002 TSNO
KPRB 201100Z AUTO 09004KT 10SM SCT026 BKN032 OVC043 12/11 A2996 RMK AO2 T01220106 TSNO
KPRB 201053Z AUTO 07004KT 10SM BKN029 BKN035 OVC046 12/11 A2996 RMK AO2 SLP138 T01220106 TSNO
KPRB 200953Z AUTO 06006KT 10SM FEW021 SCT055 10/08 A2997 RMK AO2 SLP142 T01000083 TSNO
KPRB 200853Z AUTO 09003KT 10SM CLR 10/09 A2997 RMK AO2 SLP142 T01000089 58004 TSNO
KPRB 200753Z AUTO 00000KT 10SM SCT055 11/09 A2997 RMK AO2 SLP146 T01110094 402830033 TSNO
KPRB 200653Z AUTO 18004KT 10SM SCT050 12/10 A2998 RMK AO2 SLP147 T01220100 TSNO
KPRB 200553Z AUTO 20005KT 10SM CLR 12/10 A2998 RMK AO2 SLP148 T01220100 10261 20122 53019 TSNO
KPRB 200453Z AUTO 27003KT 10SM CLR 14/11 A2996 RMK AO2 SLP142 T01390106 TSNO
KPRB 200353Z AUTO 30007KT 10SM CLR 15/11 A2993 RMK AO2 SLP134 T01500106 TSNO
KPRB 200253Z AUTO 19006KT 10SM CLR 16/09 A2992 RMK AO2 SLP130 T01560094 53012 TSNO
KPRB 200153Z AUTO 21010KT 10SM CLR 18/11 A2990 RMK AO2 SLP124 T01780106 TSNO
KPRB 200053Z AUTO 21013KT 10SM BKN070 21/12 A2987 RMK AO2 SLP114 T02110117 TSNO
KPRB 192353Z AUTO 26013KT 10SM OVC070 26/12 A2988 RMK AO2 SLP116 T02610122 10283 20150 56008 TSNO
KPRB 192253Z AUTO 17008G16KT 10SM BKN065 27/12 A2988 RMK AO2 SLP114 T02720117 TSNO
KPRB 192153Z AUTO 22008KT 10SM CLR 27/09 A2989 RMK AO2 SLP117 T02720089 TSNO
KPRB 192053Z AUTO 24005KT 10SM CLR 26/02 A2991 RMK AO2 SLP123 T02610022 58030 TSNO